createdAt,value
2018-05-21T00:00:24.126Z,4.37
2018-05-21T00:02:51.636Z,4.03
2018-05-21T00:05:19.121Z,3.60
2018-05-21T00:07:47.424Z,3.70
2018-05-21T00:10:15.688Z,4.50
2018-05-21T00:12:44.051Z,3.70
2018-05-21T00:15:11.602Z,3.50
2018-05-21T00:17:39.105Z,3.60
2018-05-21T00:20:07.335Z,3.60
2018-05-21T00:22:34.861Z,4.07
2018-05-21T00:25:03.122Z,3.60
2018-05-21T00:27:30.821Z,3.40
2018-05-21T00:29:58.342Z,3.53
2018-05-21T00:32:25.794Z,3.90
2018-05-21T00:34:53.309Z,4.00
2018-05-21T00:37:20.784Z,3.60
2018-05-21T00:39:48.334Z,3.50
2018-05-21T00:42:15.882Z,3.80
2018-05-21T00:44:43.473Z,4.17
2018-05-21T00:47:11.007Z,3.57
2018-05-21T00:49:39.296Z,3.37
2018-05-21T00:52:06.748Z,3.73
2018-05-21T00:54:35.010Z,4.10
2018-05-21T00:57:02.535Z,3.63
2018-05-21T00:59:30.754Z,3.53
2018-05-21T01:01:58.285Z,3.60
2018-05-21T01:04:25.755Z,3.83
2018-05-21T01:06:53.247Z,3.50
2018-05-21T01:09:21.514Z,3.23
2018-05-21T01:11:49.059Z,2.90
2018-05-21T01:14:16.576Z,2.90
2018-05-21T01:16:44.083Z,2.20
2018-05-21T01:19:11.631Z,3.60
2018-05-21T01:21:39.367Z,2.90
2018-05-21T01:24:06.839Z,2.60
2018-05-21T01:26:34.322Z,2.83
2018-05-21T01:29:01.831Z,3.07
2018-05-21T01:31:29.437Z,2.80
2018-05-21T01:33:57.370Z,3.47
2018-05-21T01:36:25.518Z,3.70
2018-05-21T01:38:52.988Z,2.77
2018-05-21T01:41:20.519Z,2.67
2018-05-21T01:43:47.980Z,2.97
2018-05-21T01:46:15.495Z,2.23
2018-05-21T01:48:42.987Z,3.17
2018-05-21T01:51:10.452Z,3.00
2018-05-21T01:53:38.662Z,3.10
2018-05-21T01:56:06.178Z,3.10
2018-05-21T01:58:34.421Z,2.90
2018-05-21T02:01:01.932Z,3.00
2018-05-21T02:03:31.005Z,2.63
2018-05-21T02:05:58.815Z,2.77
2018-05-21T02:08:27.062Z,2.87
2018-05-21T02:10:54.984Z,2.77
2018-05-21T02:13:22.468Z,3.13
2018-05-21T02:15:49.950Z,3.07
2018-05-21T02:18:17.769Z,3.00
2018-05-21T02:20:45.256Z,3.60
2018-05-21T02:23:12.808Z,3.50
2018-05-21T02:25:40.322Z,2.97
2018-05-21T02:28:07.799Z,2.53
2018-05-21T02:30:36.262Z,3.40
2018-05-21T02:33:03.927Z,2.97
2018-05-21T02:35:31.550Z,2.80
2018-05-21T02:37:59.113Z,3.27
2018-05-21T02:40:26.693Z,3.20
2018-05-21T02:42:54.333Z,2.57
2018-05-21T02:45:21.886Z,3.43
2018-05-21T02:47:50.348Z,3.63
2018-05-21T02:50:17.913Z,3.63
2018-05-21T02:52:45.508Z,2.97
2018-05-21T02:55:13.793Z,3.70
2018-05-21T02:57:42.032Z,3.20
2018-05-21T03:00:09.617Z,3.20
2018-05-21T03:02:37.863Z,3.07
2018-05-21T03:05:05.401Z,2.87
2018-05-21T03:07:33.645Z,3.30
2018-05-21T03:10:01.163Z,4.07
2018-05-21T03:12:28.702Z,3.20
2018-05-21T03:14:56.290Z,3.00
2018-05-21T03:17:23.828Z,3.33
2018-05-21T03:19:51.314Z,3.10
2018-05-21T03:22:18.831Z,3.30
2018-05-21T03:24:47.130Z,3.20
2018-05-21T03:27:14.657Z,3.10
2018-05-21T03:29:42.151Z,3.63
2018-05-21T03:32:09.664Z,3.27
2018-05-21T03:34:37.197Z,2.63
2018-05-21T03:37:04.869Z,3.87
2018-05-21T03:39:32.374Z,3.10
2018-05-21T03:41:59.839Z,4.00
2018-05-21T03:44:27.363Z,3.30
2018-05-21T03:46:54.876Z,3.50
2018-05-21T03:49:22.385Z,3.43
2018-05-21T03:51:49.886Z,3.57
2018-05-21T03:54:17.378Z,3.50
2018-05-21T03:56:45.703Z,3.53
2018-05-21T03:59:13.914Z,4.40
2018-05-21T04:01:41.429Z,3.43
2018-05-21T04:04:08.993Z,3.63
2018-05-21T04:06:36.440Z,3.50
2018-05-21T04:09:03.968Z,3.23
2018-05-21T04:11:31.565Z,3.77
2018-05-21T04:13:59.065Z,3.40
2018-05-21T04:16:26.529Z,3.73
2018-05-21T04:18:54.154Z,3.40
2018-05-21T04:21:21.555Z,3.60
2018-05-21T04:23:49.081Z,3.27
2018-05-21T04:26:17.361Z,3.50
2018-05-21T04:28:44.881Z,3.53
2018-05-21T04:31:12.438Z,3.20
2018-05-21T04:33:40.207Z,2.90
2018-05-21T04:36:08.092Z,3.80
2018-05-21T04:38:36.265Z,3.10
2018-05-21T04:41:03.850Z,3.20
2018-05-21T04:43:31.311Z,3.43
2018-05-21T04:45:58.809Z,4.07
2018-05-21T04:48:26.321Z,3.50
2018-05-21T04:50:53.777Z,3.43
2018-05-21T04:53:21.442Z,3.80
2018-05-21T04:55:48.896Z,3.47
2018-05-21T04:58:16.422Z,4.10
2018-05-21T05:00:43.997Z,3.80
2018-05-21T05:03:12.278Z,3.20
2018-05-21T05:05:39.893Z,3.70
2018-05-21T05:08:07.436Z,3.70
2018-05-21T05:10:35.165Z,3.37
2018-05-21T05:13:02.666Z,4.10
2018-05-21T05:15:30.182Z,3.47
2018-05-21T05:17:58.410Z,3.93
2018-05-21T05:20:25.983Z,3.90
2018-05-21T05:22:54.191Z,3.87
2018-05-21T05:25:22.471Z,4.53
2018-05-21T05:27:49.996Z,4.00
2018-05-21T05:30:17.475Z,3.30
2018-05-21T05:32:44.963Z,4.40
2018-05-21T05:35:12.458Z,5.40
2018-05-21T05:37:40.677Z,3.80
2018-05-21T05:40:08.662Z,4.33
2018-05-21T05:42:36.124Z,4.90
2018-05-21T05:45:03.589Z,3.70
2018-05-21T05:47:31.227Z,4.40
2018-05-21T05:49:59.770Z,4.63
2018-05-21T05:52:27.226Z,4.43
2018-05-21T05:54:55.139Z,4.87
2018-05-21T05:57:22.654Z,4.77
2018-05-21T05:59:50.973Z,4.30
2018-05-21T06:02:18.492Z,4.50
2018-05-21T06:04:46.027Z,4.90
2018-05-21T06:07:13.445Z,4.60
2018-05-21T06:09:40.929Z,4.73
2018-05-21T06:12:08.451Z,4.87
2018-05-21T06:14:35.981Z,5.10
2018-05-21T06:17:03.463Z,4.67
2018-05-21T06:19:30.993Z,5.27
2018-05-21T06:21:58.480Z,4.53
2018-05-21T06:24:26.054Z,4.87
2018-05-21T06:26:53.511Z,4.67
2018-05-21T06:29:20.973Z,4.97
2018-05-21T06:31:48.515Z,4.70
2018-05-21T06:34:16.061Z,4.77
2018-05-21T06:36:43.517Z,4.83
2018-05-21T06:39:13.070Z,5.37
2018-05-21T06:41:40.576Z,4.90
2018-05-21T06:44:08.099Z,5.60
2018-05-21T06:46:35.699Z,6.27
2018-05-21T06:49:03.238Z,5.20
2018-05-21T06:51:30.724Z,5.23
2018-05-21T06:53:59.038Z,5.80
2018-05-21T06:56:27.596Z,5.60
2018-05-21T06:58:55.677Z,5.57
2018-05-21T07:01:23.150Z,5.50
2018-05-21T07:03:50.629Z,5.90
2018-05-21T07:06:18.180Z,5.40
2018-05-21T07:08:45.720Z,5.00
2018-05-21T07:11:13.242Z,5.20
2018-05-21T07:13:40.802Z,5.50
2018-05-21T07:16:08.288Z,5.67
2018-05-21T07:18:36.204Z,5.80
2018-05-21T07:21:03.656Z,5.93
2018-05-21T07:23:31.967Z,5.73
2018-05-21T07:25:59.547Z,5.80
2018-05-21T07:28:27.421Z,5.20
2018-05-21T07:30:57.871Z,5.63
2018-05-21T07:33:30.948Z,5.40
2018-05-21T07:35:58.887Z,6.17
2018-05-21T07:38:26.392Z,5.30
2018-05-21T07:40:53.908Z,4.97
2018-05-21T07:43:21.736Z,5.77
2018-05-21T07:45:49.180Z,4.97
2018-05-21T07:48:16.779Z,6.27
2018-05-21T07:50:44.291Z,5.90
2018-05-21T07:53:11.871Z,4.80
2018-05-21T07:55:39.491Z,5.60
2018-05-21T07:58:06.963Z,5.80
2018-05-21T08:00:34.573Z,5.40
2018-05-21T08:03:02.046Z,5.33
2018-05-21T08:05:29.524Z,5.30
2018-05-21T08:07:57.143Z,5.70
2018-05-21T08:10:25.375Z,6.70
2018-05-21T08:12:52.876Z,5.97
2018-05-21T08:15:21.163Z,5.33
2018-05-21T08:17:48.736Z,6.47
2018-05-21T08:20:16.724Z,5.43
2018-05-21T08:22:44.247Z,5.80
2018-05-21T08:25:12.469Z,5.37
2018-05-21T08:27:40.727Z,5.70
2018-05-21T08:30:08.659Z,5.23
2018-05-21T08:32:36.946Z,5.73
2018-05-21T08:35:05.364Z,5.50
2018-05-21T08:37:32.931Z,6.07
2018-05-21T08:40:00.385Z,5.70
2018-05-21T08:42:27.988Z,5.20
2018-05-21T08:44:57.030Z,4.80
2018-05-21T08:47:24.543Z,5.37
2018-05-21T08:49:52.034Z,5.87
2018-05-21T08:52:20.377Z,5.40
2018-05-21T08:54:48.240Z,5.60
2018-05-21T08:57:15.773Z,5.10
2018-05-21T08:59:43.260Z,5.03
2018-05-21T09:02:10.751Z,5.07
2018-05-21T09:04:38.307Z,5.27
2018-05-21T09:07:05.687Z,4.73
2018-05-21T09:09:33.243Z,4.97
2018-05-21T09:12:00.788Z,4.83
2018-05-21T09:14:28.287Z,4.47
2018-05-21T09:16:55.819Z,5.17
2018-05-21T09:19:23.385Z,5.03
2018-05-21T09:21:51.644Z,4.60
2018-05-21T09:24:19.182Z,4.50
2018-05-21T09:26:46.822Z,5.13
2018-05-21T09:29:14.313Z,5.17
2018-05-21T09:31:41.941Z,4.57
2018-05-21T09:34:09.397Z,4.80
2018-05-21T09:36:36.989Z,5.00
2018-05-21T09:39:05.322Z,4.43
2018-05-21T09:41:32.802Z,4.50
2018-05-21T09:44:00.363Z,4.30
2018-05-21T09:46:27.873Z,4.03
2018-05-21T09:48:55.336Z,4.20
2018-05-21T09:51:22.878Z,4.20
2018-05-21T09:53:50.390Z,4.07
2018-05-21T09:56:17.881Z,4.33
2018-05-21T09:58:46.124Z,4.10
2018-05-21T10:01:13.619Z,4.50
2018-05-21T10:03:41.183Z,4.00
2018-05-21T10:06:08.626Z,3.70
2018-05-21T10:08:36.142Z,3.53
2018-05-21T10:11:03.675Z,3.80
2018-05-21T10:13:31.134Z,4.50
2018-05-21T10:15:59.157Z,3.40
2018-05-21T10:18:26.600Z,4.37
2018-05-21T10:20:54.142Z,3.90
2018-05-21T10:23:21.612Z,3.90
2018-05-21T10:25:49.139Z,4.50
2018-05-21T10:28:17.265Z,3.70
2018-05-21T10:30:44.824Z,4.57
2018-05-21T10:33:12.772Z,3.40
2018-05-21T10:35:40.254Z,3.93
2018-05-21T10:38:08.257Z,3.70
2018-05-21T10:40:35.869Z,3.60
2018-05-21T10:43:04.117Z,4.57
2018-05-21T10:45:31.713Z,4.30
2018-05-21T10:47:59.259Z,3.43
2018-05-21T10:50:26.770Z,4.33
2018-05-21T10:52:54.268Z,3.40
2018-05-21T10:55:22.499Z,3.77
2018-05-21T10:57:50.135Z,3.37
2018-05-21T11:00:17.701Z,3.53
2018-05-21T11:02:45.937Z,4.70
2018-05-21T11:05:13.439Z,4.30
2018-05-21T11:07:40.942Z,3.87
2018-05-21T11:10:08.493Z,3.57
2018-05-21T11:12:36.697Z,3.43
2018-05-21T11:15:04.846Z,3.13
2018-05-21T11:17:32.380Z,3.30
2018-05-21T11:20:01.242Z,3.80
2018-05-21T11:22:28.659Z,4.43
2018-05-21T11:24:57.077Z,4.37
2018-05-21T11:27:24.627Z,3.63
2018-05-21T11:29:52.792Z,3.60
2018-05-21T11:32:21.057Z,3.70
2018-05-21T11:34:49.305Z,3.63
2018-05-21T11:37:16.795Z,4.10
2018-05-21T11:39:44.325Z,3.80
2018-05-21T11:42:11.764Z,3.73
2018-05-21T11:44:39.259Z,3.10
2018-05-21T11:47:07.574Z,4.00
2018-05-21T11:49:35.127Z,3.27
2018-05-21T11:52:02.650Z,3.93
2018-05-21T11:54:30.145Z,3.73
2018-05-21T11:56:57.649Z,4.00
2018-05-21T11:59:25.121Z,4.00
2018-05-21T12:01:52.652Z,3.50
2018-05-21T12:04:20.208Z,3.40
2018-05-21T12:06:47.889Z,3.60
2018-05-21T12:09:15.649Z,2.87
2018-05-21T12:11:43.138Z,3.20
2018-05-21T12:14:13.627Z,3.10
2018-05-21T12:16:41.124Z,3.23
2018-05-21T12:19:08.621Z,3.20
2018-05-21T12:21:36.084Z,3.93
2018-05-21T12:24:03.610Z,2.87
2018-05-21T12:26:31.259Z,3.50
2018-05-21T12:28:58.772Z,2.90
2018-05-21T12:31:26.328Z,3.00
2018-05-21T12:33:53.856Z,3.07
2018-05-21T12:36:21.431Z,3.57
2018-05-21T12:38:49.660Z,3.13
2018-05-21T12:41:17.190Z,2.80
2018-05-21T12:43:44.727Z,3.43
2018-05-21T12:46:12.288Z,3.23
2018-05-21T12:48:40.869Z,2.77
2018-05-21T12:51:08.366Z,3.17
2018-05-21T12:53:35.888Z,3.17
2018-05-21T12:56:03.422Z,2.67
2018-05-21T12:58:30.931Z,3.40
2018-05-21T13:00:58.562Z,2.90
2018-05-21T13:03:26.043Z,3.33
2018-05-21T13:05:54.290Z,3.20
2018-05-21T13:08:21.801Z,2.63
2018-05-21T13:10:49.319Z,2.87
2018-05-21T13:13:16.798Z,2.83
2018-05-21T13:15:45.060Z,2.67
2018-05-21T13:18:12.646Z,3.10
2018-05-21T13:20:40.186Z,2.57
2018-05-21T13:23:07.775Z,3.10
2018-05-21T13:25:35.501Z,3.03
2018-05-21T13:28:03.036Z,3.03
2018-05-21T13:30:30.545Z,2.80
2018-05-21T13:32:58.117Z,2.97
2018-05-21T13:35:25.606Z,2.60
2018-05-21T13:37:53.117Z,2.80
2018-05-21T13:40:20.617Z,2.37
2018-05-21T13:42:48.113Z,2.40
2018-05-21T13:45:15.647Z,2.77
2018-05-21T13:47:43.141Z,3.27
2018-05-21T13:50:11.359Z,3.00
2018-05-21T13:52:38.889Z,2.60
2018-05-21T13:55:06.750Z,2.93
2018-05-21T13:57:34.143Z,2.40
2018-05-21T14:00:01.686Z,2.80
2018-05-21T14:02:29.970Z,3.03
2018-05-21T14:04:57.474Z,2.53
2018-05-21T14:07:24.936Z,2.57
2018-05-21T14:09:52.479Z,2.43
2018-05-21T14:12:20.332Z,2.70
2018-05-21T14:14:48.800Z,2.60
2018-05-21T14:17:16.285Z,2.63
2018-05-21T14:19:43.911Z,2.20
2018-05-21T14:22:11.371Z,2.57
2018-05-21T14:24:39.651Z,2.80
2018-05-21T14:27:07.238Z,3.00
2018-05-21T14:29:34.781Z,2.70
2018-05-21T14:32:02.224Z,2.57
2018-05-21T14:34:30.510Z,2.83
2018-05-21T14:36:58.837Z,3.07
2018-05-21T14:39:26.337Z,3.57
2018-05-21T14:41:53.802Z,2.83
2018-05-21T14:44:21.371Z,3.43
2018-05-21T14:46:48.912Z,2.63
2018-05-21T14:49:16.407Z,2.30
2018-05-21T14:51:43.910Z,3.10
2018-05-21T14:54:11.429Z,2.53
2018-05-21T14:56:39.215Z,2.83
2018-05-21T14:59:06.833Z,3.00
2018-05-21T15:01:34.455Z,2.47
2018-05-21T15:04:02.042Z,2.73
2018-05-21T15:06:29.466Z,3.17
2018-05-21T15:08:56.939Z,2.63
2018-05-21T15:11:25.430Z,2.80
2018-05-21T15:13:53.716Z,3.07
2018-05-21T15:16:21.267Z,2.77
2018-05-21T15:18:48.745Z,3.23
2018-05-21T15:21:16.234Z,2.50
2018-05-21T15:23:43.755Z,2.80
2018-05-21T15:26:11.555Z,2.90
2018-05-21T15:28:39.067Z,2.87
2018-05-21T15:31:06.651Z,2.70
2018-05-21T15:33:35.981Z,2.73
2018-05-21T15:36:03.528Z,2.90
2018-05-21T15:38:31.757Z,2.60
2018-05-21T15:40:59.221Z,2.30
2018-05-21T15:43:26.863Z,2.67
2018-05-21T15:45:54.357Z,2.63
2018-05-21T15:48:22.527Z,2.57
2018-05-21T15:50:50.014Z,3.10
2018-05-21T15:53:17.535Z,2.80
2018-05-21T15:55:45.046Z,3.10
2018-05-21T15:58:12.594Z,2.63
2018-05-21T16:00:40.110Z,3.30
2018-05-21T16:03:07.664Z,2.80
2018-05-21T16:05:35.905Z,2.83
2018-05-21T16:08:03.375Z,2.83
2018-05-21T16:10:30.867Z,2.53
2018-05-21T16:12:59.138Z,3.03
2018-05-21T16:15:27.074Z,2.20
2018-05-21T16:17:54.723Z,3.30
2018-05-21T16:20:22.232Z,3.40
2018-05-21T16:22:49.648Z,3.30
2018-05-21T16:25:18.339Z,3.03
2018-05-21T16:27:46.119Z,2.90
2018-05-21T16:30:13.670Z,2.40
2018-05-21T16:32:41.280Z,3.50
2018-05-21T16:35:08.705Z,2.60
2018-05-21T16:37:36.238Z,2.57
2018-05-21T16:40:03.857Z,3.00
2018-05-21T16:42:31.306Z,2.80
2018-05-21T16:44:58.898Z,2.80
2018-05-21T16:47:26.384Z,2.37
2018-05-21T16:49:53.925Z,3.47
2018-05-21T16:52:21.616Z,2.20
2018-05-21T16:54:50.424Z,2.90
2018-05-21T16:57:18.019Z,2.97
2018-05-21T16:59:45.593Z,3.00
2018-05-21T17:02:13.070Z,2.87
2018-05-21T17:04:40.585Z,2.47
2018-05-21T17:07:08.056Z,2.73
2018-05-21T17:09:35.818Z,3.43
2018-05-21T17:12:03.420Z,3.10
2018-05-21T17:14:30.884Z,2.33
2018-05-21T17:16:58.505Z,2.83
2018-05-21T17:19:26.267Z,2.83
2018-05-21T17:21:53.756Z,2.50
2018-05-21T17:24:21.290Z,2.87
2018-05-21T17:26:49.433Z,2.67
2018-05-21T17:29:16.917Z,2.53
2018-05-21T17:31:44.375Z,2.13
2018-05-21T17:34:11.901Z,2.40
2018-05-21T17:36:40.020Z,2.60
2018-05-21T17:39:08.331Z,2.20
2018-05-21T17:41:36.554Z,3.10
2018-05-21T17:44:03.974Z,2.60
2018-05-21T17:46:31.491Z,2.63
2018-05-21T17:48:58.999Z,2.80
2018-05-21T17:51:27.337Z,2.53
2018-05-21T17:53:55.306Z,3.10
2018-05-21T17:56:22.872Z,3.07
2018-05-21T17:58:50.347Z,3.00
2018-05-21T18:01:17.884Z,2.60
2018-05-21T18:03:45.462Z,2.73
2018-05-21T18:06:12.988Z,2.63
2018-05-21T18:08:40.529Z,2.73
2018-05-21T18:11:08.143Z,3.17
2018-05-21T18:13:35.620Z,2.67
2018-05-21T18:16:03.135Z,3.00
2018-05-21T18:18:31.540Z,2.97
2018-05-21T18:20:59.362Z,2.60
2018-05-21T18:23:27.013Z,3.10
2018-05-21T18:25:54.477Z,2.77
2018-05-21T18:28:22.273Z,2.70
2018-05-21T18:30:50.523Z,2.70
2018-05-21T18:33:18.014Z,2.90
2018-05-21T18:35:45.596Z,2.40
2018-05-21T18:38:13.056Z,2.90
2018-05-21T18:40:40.668Z,2.70
2018-05-21T18:43:08.110Z,2.10
2018-05-21T18:45:35.613Z,2.93
2018-05-21T18:48:03.142Z,2.80
2018-05-21T18:50:30.735Z,2.90
2018-05-21T18:52:58.197Z,2.80
2018-05-21T18:55:25.678Z,2.67
2018-05-21T18:57:53.961Z,3.03
2018-05-21T19:00:22.296Z,3.13
2018-05-21T19:02:49.908Z,2.90
2018-05-21T19:05:18.189Z,2.80
2018-05-21T19:07:46.550Z,2.70
2018-05-21T19:10:14.228Z,2.63
2018-05-21T19:12:41.678Z,3.10
2018-05-21T19:15:09.771Z,3.07
2018-05-21T19:17:37.225Z,3.37
2018-05-21T19:20:05.637Z,2.90
2018-05-21T19:22:33.218Z,2.70
2018-05-21T19:25:00.709Z,2.73
2018-05-21T19:27:28.217Z,3.17
2018-05-21T19:29:56.596Z,2.93
2018-05-21T19:32:24.106Z,2.80
2018-05-21T19:34:54.977Z,3.40
2018-05-21T19:37:22.505Z,3.60
2018-05-21T19:39:50.340Z,3.40
2018-05-21T19:42:17.893Z,3.70
2018-05-21T19:44:46.197Z,2.73
2018-05-21T19:47:14.625Z,3.73
2018-05-21T19:49:42.136Z,3.47
2018-05-21T19:52:10.459Z,2.57
2018-05-21T19:54:37.902Z,2.70
2018-05-21T19:57:05.411Z,2.93
2018-05-21T19:59:32.884Z,3.60
2018-05-21T20:02:01.583Z,2.50
2018-05-21T20:04:30.063Z,3.07
2018-05-21T20:06:57.556Z,3.17
2018-05-21T20:09:25.085Z,3.00
2018-05-21T20:11:52.784Z,3.00
2018-05-21T20:14:20.223Z,2.90
2018-05-21T20:16:48.476Z,2.53
2018-05-21T20:19:16.008Z,3.00
2018-05-21T20:21:43.552Z,2.90
2018-05-21T20:24:11.237Z,2.93
2018-05-21T20:26:39.023Z,2.73
2018-05-21T20:29:07.285Z,3.13
2018-05-21T20:31:34.851Z,2.73
2018-05-21T20:34:02.406Z,2.93
2018-05-21T20:36:31.056Z,3.20
2018-05-21T20:38:58.644Z,4.00
2018-05-21T20:41:27.156Z,3.67
2018-05-21T20:43:54.949Z,3.33
2018-05-21T20:46:22.591Z,2.90
2018-05-21T20:48:50.459Z,2.77
2018-05-21T20:51:17.951Z,3.47
2018-05-21T20:53:45.617Z,2.90
2018-05-21T20:56:13.210Z,2.83
2018-05-21T20:58:40.935Z,3.07
2018-05-21T21:01:09.449Z,3.07
2018-05-21T21:03:36.853Z,2.97
2018-05-21T21:06:04.441Z,3.27
2018-05-21T21:08:32.940Z,2.80
2018-05-21T21:11:01.200Z,3.10
2018-05-21T21:13:28.670Z,3.23
2018-05-21T21:15:56.224Z,3.40
2018-05-21T21:18:23.969Z,3.80
2018-05-21T21:20:52.276Z,3.30
2018-05-21T21:23:20.000Z,3.40
2018-05-21T21:25:48.065Z,4.00
2018-05-21T21:28:15.730Z,3.40
2018-05-21T21:30:43.326Z,3.70
2018-05-21T21:33:10.827Z,3.67
2018-05-21T21:35:38.588Z,3.40
2018-05-21T21:38:06.920Z,3.70
2018-05-21T21:40:34.435Z,3.47
2018-05-21T21:43:01.952Z,3.50
2018-05-21T21:45:29.542Z,4.37
2018-05-21T21:47:56.998Z,3.50
2018-05-21T21:50:25.227Z,4.00
2018-05-21T21:52:52.769Z,3.37
2018-05-21T21:55:20.380Z,3.37
2018-05-21T21:57:48.077Z,3.70
2018-05-21T22:00:15.822Z,3.67
2018-05-21T22:02:43.409Z,3.27
2018-05-21T22:05:10.945Z,4.00
2018-05-21T22:07:38.431Z,3.77
2018-05-21T22:10:06.040Z,4.40
2018-05-21T22:12:33.592Z,3.73
2018-05-21T22:15:01.841Z,4.23
2018-05-21T22:17:30.120Z,3.57
2018-05-21T22:19:58.589Z,3.50
2018-05-21T22:22:26.044Z,3.77
2018-05-21T22:24:53.617Z,3.50
2018-05-21T22:27:21.109Z,3.90
2018-05-21T22:29:49.764Z,3.03
2018-05-21T22:32:17.457Z,3.60
2018-05-21T22:34:45.004Z,3.53
2018-05-21T22:37:12.616Z,4.10
2018-05-21T22:39:40.099Z,3.67
2018-05-21T22:42:07.856Z,3.47
2018-05-21T22:44:35.499Z,3.20
2018-05-21T22:47:03.242Z,4.03
2018-05-21T22:49:30.847Z,3.43
2018-05-21T22:51:59.250Z,2.70
2018-05-21T22:54:27.498Z,4.60
2018-05-21T22:56:55.012Z,3.20
2018-05-21T22:59:22.608Z,3.30
2018-05-21T23:01:50.712Z,3.80
2018-05-21T23:04:18.259Z,4.20
2018-05-21T23:06:46.655Z,3.80
2018-05-21T23:09:14.103Z,4.13
2018-05-21T23:11:42.541Z,3.50
2018-05-21T23:14:10.023Z,3.67
2018-05-21T23:16:37.646Z,4.30
2018-05-21T23:19:05.917Z,3.47
2018-05-21T23:21:33.444Z,4.20
2018-05-21T23:24:00.912Z,3.90
2018-05-21T23:26:29.272Z,3.10
2018-05-21T23:28:56.758Z,3.73
2018-05-21T23:31:25.150Z,3.90
2018-05-21T23:33:52.680Z,3.83
2018-05-21T23:36:20.198Z,3.30
2018-05-21T23:38:47.690Z,3.60
2018-05-21T23:41:15.162Z,3.43
2018-05-21T23:43:42.692Z,3.40
2018-05-21T23:46:10.208Z,3.30
2018-05-21T23:48:37.670Z,3.10
2018-05-21T23:51:06.076Z,3.10
2018-05-21T23:53:33.556Z,3.40
2018-05-21T23:56:01.097Z,4.17
2018-05-21T23:58:29.350Z,3.57
